createdAt,value
2023-01-19T00:00:26.374Z,2.26
2023-01-19T00:03:49.199Z,2.37
2023-01-19T00:06:51.673Z,2.44
2023-01-19T00:09:54.731Z,2.49
2023-01-19T00:12:57.181Z,2.53
2023-01-19T00:15:59.991Z,2.45
2023-01-19T00:19:02.546Z,2.53
2023-01-19T00:22:06.239Z,2.66
2023-01-19T00:25:09.103Z,2.53
2023-01-19T00:28:13.510Z,2.46
2023-01-19T00:31:15.976Z,2.54
2023-01-19T00:34:18.875Z,2.52
2023-01-19T00:37:21.380Z,2.50
2023-01-19T00:40:24.184Z,2.54
2023-01-19T00:43:26.656Z,2.57
2023-01-19T00:46:29.431Z,2.67
2023-01-19T00:49:32.076Z,2.61
2023-01-19T00:52:35.017Z,2.68
2023-01-19T00:55:37.619Z,2.74
2023-01-19T00:58:40.308Z,2.67
2023-01-19T01:01:45.770Z,2.75
2023-01-19T01:04:55.081Z,2.72
2023-01-19T01:07:58.058Z,2.74
2023-01-19T01:11:01.124Z,2.67
2023-01-19T01:14:03.661Z,2.78
2023-01-19T01:17:06.563Z,2.79
2023-01-19T01:20:09.767Z,2.94
2023-01-19T01:23:12.938Z,2.81
2023-01-19T01:26:15.425Z,3.08
2023-01-19T01:29:18.241Z,3.05
2023-01-19T01:32:20.687Z,3.06
2023-01-19T01:35:23.531Z,2.95
2023-01-19T01:38:26.029Z,2.90
2023-01-19T01:41:28.843Z,3.01
2023-01-19T01:44:50.155Z,3.11
2023-01-19T01:47:55.265Z,3.06
2023-01-19T01:51:19.895Z,3.09
2023-01-19T01:54:27.068Z,3.11
2023-01-19T01:57:30.420Z,3.00
2023-01-19T02:00:53.374Z,2.94
2023-01-19T02:03:56.822Z,2.76
2023-01-19T02:07:17.925Z,2.87
2023-01-19T02:10:38.855Z,2.88
2023-01-19T02:13:45.286Z,2.94
2023-01-19T02:16:48.708Z,3.00
2023-01-19T02:19:51.772Z,2.96
2023-01-19T02:22:55.991Z,2.90
2023-01-19T02:26:00.275Z,2.89
2023-01-19T02:29:08.216Z,2.91
2023-01-19T02:32:11.045Z,2.89
2023-01-19T02:35:13.659Z,2.92
2023-01-19T02:38:18.359Z,2.78
2023-01-19T02:41:23.213Z,2.77
2023-01-19T02:44:27.070Z,2.83
2023-01-19T02:47:39.098Z,2.88
2023-01-19T02:50:50.922Z,2.93
2023-01-19T02:54:08.806Z,2.91
2023-01-19T02:57:17.581Z,2.97
2023-01-19T03:00:50.958Z,2.97
2023-01-19T03:04:02.854Z,2.84
2023-01-19T03:07:13.207Z,2.95
2023-01-19T03:10:31.240Z,2.89
2023-01-19T03:13:45.945Z,2.88
2023-01-19T03:16:55.423Z,2.90
2023-01-19T03:19:58.282Z,2.86
2023-01-19T03:23:05.881Z,2.87
2023-01-19T03:26:12.007Z,2.90
2023-01-19T03:29:16.217Z,2.98
2023-01-19T03:32:22.297Z,2.96
2023-01-19T03:35:26.925Z,3.05
2023-01-19T03:38:34.388Z,3.01
2023-01-19T03:41:38.955Z,2.97
2023-01-19T03:44:42.956Z,3.02
2023-01-19T03:47:45.812Z,2.91
2023-01-19T03:50:48.206Z,2.91
2023-01-19T03:53:51.066Z,2.88
2023-01-19T03:56:54.287Z,2.92
2023-01-19T03:59:57.221Z,2.90
2023-01-19T04:02:59.930Z,2.92
2023-01-19T04:06:03.178Z,2.94
2023-01-19T04:09:06.217Z,2.94
2023-01-19T04:12:09.448Z,2.90
2023-01-19T04:15:12.603Z,2.90
2023-01-19T04:18:15.312Z,2.83
2023-01-19T04:21:17.796Z,2.80
2023-01-19T04:24:21.050Z,2.70
2023-01-19T04:27:23.635Z,2.61
2023-01-19T04:30:27.681Z,2.68
2023-01-19T04:33:30.125Z,2.55
2023-01-19T04:36:32.956Z,2.67
2023-01-19T04:39:35.960Z,2.75
2023-01-19T04:42:39.637Z,2.80
2023-01-19T04:45:44.439Z,2.82
2023-01-19T04:48:47.372Z,2.57
2023-01-19T04:51:49.950Z,2.62
2023-01-19T04:54:53.204Z,2.79
2023-01-19T04:57:55.788Z,2.79
2023-01-19T05:01:01.234Z,2.73
2023-01-19T05:13:57.717Z,2.71
2023-01-19T05:17:05.679Z,2.79
2023-01-19T05:20:10.866Z,2.77
2023-01-19T05:23:58.260Z,2.79
2023-01-19T05:27:22.055Z,2.76
2023-01-19T05:30:25.372Z,2.83
2023-01-19T05:33:28.099Z,2.79
2023-01-19T05:36:31.966Z,2.84
2023-01-19T05:39:34.480Z,2.78
2023-01-19T05:42:37.808Z,2.88
2023-01-19T05:45:41.398Z,2.75
2023-01-19T05:48:45.345Z,2.69
2023-01-19T05:51:47.901Z,2.77
2023-01-19T05:54:51.763Z,2.83
2023-01-19T05:57:54.404Z,2.81
2023-01-19T06:00:57.661Z,2.86
2023-01-19T06:04:00.131Z,2.84
2023-01-19T06:07:03.110Z,2.82
2023-01-19T06:10:06.057Z,2.93
2023-01-19T06:13:11.337Z,2.68
2023-01-19T06:16:14.768Z,2.91
2023-01-19T06:19:17.633Z,2.94
2023-01-19T06:22:20.132Z,2.92
2023-01-19T06:25:23.043Z,2.99
2023-01-19T06:28:25.728Z,2.99
2023-01-19T06:31:28.568Z,2.99
2023-01-19T06:40:26.434Z,2.99
2023-01-19T06:43:33.091Z,2.87
2023-01-19T06:46:36.218Z,2.90
2023-01-19T06:47:49.854Z,3.01
2023-01-19T06:49:39.290Z,2.94
2023-01-19T06:52:42.788Z,2.99
2023-01-19T06:55:46.071Z,3.01
2023-01-19T06:58:49.133Z,2.99
2023-01-19T07:01:52.878Z,3.01
2023-01-19T07:04:59.947Z,2.92
2023-01-19T07:08:04.282Z,3.02
2023-01-19T07:11:22.403Z,2.97
2023-01-19T07:14:40.513Z,2.98
2023-01-19T07:17:43.754Z,2.96
2023-01-19T07:20:49.489Z,3.01
2023-01-19T07:24:19.315Z,3.03
2023-01-19T19:36:46.015Z,3.41
2023-01-19T19:40:00.910Z,3.30
2023-01-19T19:43:07.381Z,3.20
2023-01-19T19:46:17.038Z,3.35
2023-01-19T19:49:22.227Z,3.47
2023-01-19T19:52:28.504Z,3.48
2023-01-19T19:55:32.833Z,3.35
2023-01-19T19:58:42.521Z,3.46
2023-01-19T20:01:47.458Z,3.30
2023-01-19T20:04:53.006Z,3.56
2023-01-19T20:07:57.089Z,3.61
2023-01-19T20:11:23.675Z,3.65
2023-01-19T20:14:28.265Z,3.58
2023-01-19T20:17:32.434Z,3.54
2023-01-19T20:20:36.671Z,3.43
2023-01-19T20:23:41.570Z,3.57
2023-01-19T20:26:48.994Z,3.63
2023-01-19T20:29:58.861Z,3.66
2023-01-19T20:33:02.899Z,3.63
2023-01-19T20:36:08.553Z,3.54
2023-01-19T20:39:13.002Z,3.44
2023-01-19T20:42:17.512Z,3.63
2023-01-19T20:45:26.336Z,3.59
2023-01-19T20:48:30.962Z,3.57
2023-01-19T20:51:36.566Z,3.61
2023-01-19T20:54:40.971Z,3.59
2023-01-19T20:57:44.141Z,3.54
2023-01-19T21:00:48.429Z,3.53
2023-01-19T21:03:52.954Z,3.55
2023-01-19T21:06:56.592Z,3.64
2023-01-19T21:10:00.654Z,3.66
2023-01-19T21:13:03.807Z,3.54
2023-01-19T21:16:07.897Z,3.60
2023-01-19T21:19:12.967Z,3.57
2023-01-19T21:22:16.234Z,3.60
2023-01-19T21:25:21.284Z,3.63
2023-01-19T21:28:28.930Z,3.61
2023-01-19T21:38:25.366Z,3.60
